sensor_id;sensor_type;location;lat;lon;timestamp;temperature;humidity
16964;DHT22;8598;50.508;10.436;2022-12-18T00:01:45;-12.00;99.90
16964;DHT22;8598;50.508;10.436;2022-12-18T00:04:20;-12.00;99.90
16964;DHT22;8598;50.508;10.436;2022-12-18T00:06:46;-12.00;99.90
16964;DHT22;8598;50.508;10.436;2022-12-18T00:09:13;-12.00;99.90
16964;DHT22;8598;50.508;10.436;2022-12-18T00:11:40;-12.10;99.90
16964;DHT22;8598;50.508;10.436;2022-12-18T00:14:08;-12.10;99.90
16964;DHT22;8598;50.508;10.436;2022-12-18T00:16:36;-12.10;99.90
16964;DHT22;8598;50.508;10.436;2022-12-18T00:19:04;-12.10;99.90
16964;DHT22;8598;50.508;10.436;2022-12-18T00:21:33;-12.20;99.90
16964;DHT22;8598;50.508;10.436;2022-12-18T00:24:00;-12.10;99.90
16964;DHT22;8598;50.508;10.436;2022-12-18T00:26:29;-12.10;99.90
16964;DHT22;8598;50.508;10.436;2022-12-18T00:28:58;-12.20;99.90
16964;DHT22;8598;50.508;10.436;2022-12-18T00:31:26;-12.30;99.90
16964;DHT22;8598;50.508;10.436;2022-12-18T00:33:53;-12.40;99.90
16964;DHT22;8598;50.508;10.436;2022-12-18T00:36:23;-12.30;99.90
16964;DHT22;8598;50.508;10.436;2022-12-18T00:38:50;-12.30;99.90
16964;DHT22;8598;50.508;10.436;2022-12-18T00:41:18;-12.30;99.90
16964;DHT22;8598;50.508;10.436;2022-12-18T00:43:58;-12.20;99.90
16964;DHT22;8598;50.508;10.436;2022-12-18T00:46:25;-12.20;99.90
16964;DHT22;8598;50.508;10.436;2022-12-18T00:48:52;-12.10;99.90
16964;DHT22;8598;50.508;10.436;2022-12-18T00:51:19;-12.10;99.90
16964;DHT22;8598;50.508;10.436;2022-12-18T00:53:47;-12.20;99.90
16964;DHT22;8598;50.508;10.436;2022-12-18T00:56:14;-12.30;99.90
16964;DHT22;8598;50.508;10.436;2022-12-18T00:58:40;-12.40;99.90
16964;DHT22;8598;50.508;10.436;2022-12-18T01:01:07;-12.50;99.90
16964;DHT22;8598;50.508;10.436;2022-12-18T01:03:34;-12.50;99.90
16964;DHT22;8598;50.508;10.436;2022-12-18T01:06:06;-12.50;99.90
16964;DHT22;8598;50.508;10.436;2022-12-18T01:08:32;-12.40;99.90
16964;DHT22;8598;50.508;10.436;2022-12-18T01:11:01;-12.50;99.90
16964;DHT22;8598;50.508;10.436;2022-12-18T01:13:27;-12.60;99.90
16964;DHT22;8598;50.508;10.436;2022-12-18T01:15:54;-12.60;99.90
16964;DHT22;8598;50.508;10.436;2022-12-18T01:18:21;-12.60;99.90
16964;DHT22;8598;50.508;10.436;2022-12-18T01:20:48;-12.50;99.90
16964;DHT22;8598;50.508;10.436;2022-12-18T01:23:14;-12.50;99.90
16964;DHT22;8598;50.508;10.436;2022-12-18T01:25:41;-12.60;99.90
16964;DHT22;8598;50.508;10.436;2022-12-18T01:28:09;-12.50;99.90
16964;DHT22;8598;50.508;10.436;2022-12-18T01:30:36;-12.50;99.90
16964;DHT22;8598;50.508;10.436;2022-12-18T01:33:04;-12.70;99.90
16964;DHT22;8598;50.508;10.436;2022-12-18T01:35:31;-12.70;99.90
16964;DHT22;8598;50.508;10.436;2022-12-18T01:37:58;-12.60;99.90
16964;DHT22;8598;50.508;10.436;2022-12-18T01:40:25;-12.70;99.90
16964;DHT22;8598;50.508;10.436;2022-12-18T01:42:52;-12.60;99.90
16964;DHT22;8598;50.508;10.436;2022-12-18T01:45:25;-12.60;99.90
16964;DHT22;8598;50.508;10.436;2022-12-18T01:47:57;-12.60;99.90
16964;DHT22;8598;50.508;10.436;2022-12-18T01:50:28;-12.70;99.90
16964;DHT22;8598;50.508;10.436;2022-12-18T01:53:00;-12.80;99.90
16964;DHT22;8598;50.508;10.436;2022-12-18T01:55:30;-12.90;99.90
16964;DHT22;8598;50.508;10.436;2022-12-18T01:57:59;-12.80;99.90
16964;DHT22;8598;50.508;10.436;2022-12-18T02:00:28;-12.90;99.90
16964;DHT22;8598;50.508;10.436;2022-12-18T02:02:55;-13.00;99.90
16964;DHT22;8598;50.508;10.436;2022-12-18T02:05:29;-12.80;99.90
16964;DHT22;8598;50.508;10.436;2022-12-18T02:08:07;-12.70;99.90
16964;DHT22;8598;50.508;10.436;2022-12-18T02:10:41;-12.70;99.90
16964;DHT22;8598;50.508;10.436;2022-12-18T02:13:14;-12.70;99.90
16964;DHT22;8598;50.508;10.436;2022-12-18T02:15:51;-12.70;99.90
16964;DHT22;8598;50.508;10.436;2022-12-18T02:18:21;-12.70;99.90
16964;DHT22;8598;50.508;10.436;2022-12-18T02:20:55;-12.80;99.90
16964;DHT22;8598;50.508;10.436;2022-12-18T02:23:35;-12.80;99.90
16964;DHT22;8598;50.508;10.436;2022-12-18T02:26:13;-12.70;99.90
16964;DHT22;8598;50.508;10.436;2022-12-18T02:28:44;-12.80;99.90
16964;DHT22;8598;50.508;10.436;2022-12-18T02:31:16;-12.90;99.90
16964;DHT22;8598;50.508;10.436;2022-12-18T02:33:44;-12.70;99.90
16964;DHT22;8598;50.508;10.436;2022-12-18T02:36:12;-12.80;99.90
16964;DHT22;8598;50.508;10.436;2022-12-18T02:38:41;-12.80;99.90
16964;DHT22;8598;50.508;10.436;2022-12-18T02:41:13;-12.90;99.90
16964;DHT22;8598;50.508;10.436;2022-12-18T02:43:45;-13.00;99.90
16964;DHT22;8598;50.508;10.436;2022-12-18T02:46:27;-13.10;99.90
16964;DHT22;8598;50.508;10.436;2022-12-18T02:49:00;-12.90;99.90
16964;DHT22;8598;50.508;10.436;2022-12-18T02:51:30;-12.80;99.90
16964;DHT22;8598;50.508;10.436;2022-12-18T02:54:05;-12.90;99.90
16964;DHT22;8598;50.508;10.436;2022-12-18T02:56:38;-12.90;99.90
16964;DHT22;8598;50.508;10.436;2022-12-18T02:59:09;-13.00;99.90
16964;DHT22;8598;50.508;10.436;2022-12-18T03:01:43;-12.90;99.90
16964;DHT22;8598;50.508;10.436;2022-12-18T03:04:15;-13.00;99.90
16964;DHT22;8598;50.508;10.436;2022-12-18T03:06:46;-13.10;99.90
16964;DHT22;8598;50.508;10.436;2022-12-18T03:09:19;-13.10;99.90
16964;DHT22;8598;50.508;10.436;2022-12-18T03:11:54;-13.10;99.90
16964;DHT22;8598;50.508;10.436;2022-12-18T03:14:40;-13.00;99.90
16964;DHT22;8598;50.508;10.436;2022-12-18T03:17:10;-13.10;99.90
16964;DHT22;8598;50.508;10.436;2022-12-18T03:19:41;-13.20;99.90
16964;DHT22;8598;50.508;10.436;2022-12-18T03:22:10;-13.20;99.90
16964;DHT22;8598;50.508;10.436;2022-12-18T03:24:37;-13.30;99.90
16964;DHT22;8598;50.508;10.436;2022-12-18T03:27:09;-13.30;99.90
16964;DHT22;8598;50.508;10.436;2022-12-18T03:29:40;-13.30;99.90
16964;DHT22;8598;50.508;10.436;2022-12-18T03:32:11;-14.30;99.90
16964;DHT22;8598;50.508;10.436;2022-12-18T03:34:40;-13.10;99.90
16964;DHT22;8598;50.508;10.436;2022-12-18T03:37:08;-13.10;99.90
16964;DHT22;8598;50.508;10.436;2022-12-18T03:39:37;-13.10;99.90
16964;DHT22;8598;50.508;10.436;2022-12-18T03:42:09;-13.10;99.90
16964;DHT22;8598;50.508;10.436;2022-12-18T03:44:42;-13.10;99.90
16964;DHT22;8598;50.508;10.436;2022-12-18T03:47:15;-13.10;99.90
16964;DHT22;8598;50.508;10.436;2022-12-18T03:49:48;-13.20;99.90
16964;DHT22;8598;50.508;10.436;2022-12-18T03:52:20;-13.30;99.90
16964;DHT22;8598;50.508;10.436;2022-12-18T03:54:49;-13.30;99.90
16964;DHT22;8598;50.508;10.436;2022-12-18T03:57:20;-13.40;99.90
16964;DHT22;8598;50.508;10.436;2022-12-18T03:59:50;-13.40;99.90
16964;DHT22;8598;50.508;10.436;2022-12-18T04:02:18;-13.40;99.90
16964;DHT22;8598;50.508;10.436;2022-12-18T04:04:47;-13.60;99.90
16964;DHT22;8598;50.508;10.436;2022-12-18T04:07:17;-13.50;99.90
16964;DHT22;8598;50.508;10.436;2022-12-18T04:09:45;-13.40;99.90
16964;DHT22;8598;50.508;10.436;2022-12-18T04:12:13;-13.40;99.90
16964;DHT22;8598;50.508;10.436;2022-12-18T04:14:43;-13.40;99.90
16964;DHT22;8598;50.508;10.436;2022-12-18T04:17:10;-13.40;99.90
16964;DHT22;8598;50.508;10.436;2022-12-18T04:19:37;-13.40;99.90
16964;DHT22;8598;50.508;10.436;2022-12-18T04:22:03;-13.40;99.90
16964;DHT22;8598;50.508;10.436;2022-12-18T04:24:30;-13.40;99.90
16964;DHT22;8598;50.508;10.436;2022-12-18T04:26:57;-13.30;99.90
16964;DHT22;8598;50.508;10.436;2022-12-18T04:29:23;-13.30;99.90
16964;DHT22;8598;50.508;10.436;2022-12-18T04:31:52;-13.40;99.90
16964;DHT22;8598;50.508;10.436;2022-12-18T04:34:18;-13.40;99.90
16964;DHT22;8598;50.508;10.436;2022-12-18T04:36:45;-13.40;99.90
16964;DHT22;8598;50.508;10.436;2022-12-18T04:39:12;-13.50;99.90
16964;DHT22;8598;50.508;10.436;2022-12-18T04:41:39;-13.50;99.90
16964;DHT22;8598;50.508;10.436;2022-12-18T04:44:06;-13.60;99.90
16964;DHT22;8598;50.508;10.436;2022-12-18T04:46:33;-13.60;99.90
16964;DHT22;8598;50.508;10.436;2022-12-18T04:49:01;-13.50;99.90
16964;DHT22;8598;50.508;10.436;2022-12-18T04:51:28;-13.50;99.90
16964;DHT22;8598;50.508;10.436;2022-12-18T04:53:54;-13.60;99.90
16964;DHT22;8598;50.508;10.436;2022-12-18T04:56:21;-13.60;99.90
16964;DHT22;8598;50.508;10.436;2022-12-18T04:58:48;-13.70;99.90
16964;DHT22;8598;50.508;10.436;2022-12-18T05:01:18;-13.60;99.90
16964;DHT22;8598;50.508;10.436;2022-12-18T05:03:45;-13.60;99.90
16964;DHT22;8598;50.508;10.436;2022-12-18T05:06:13;-13.70;99.90
16964;DHT22;8598;50.508;10.436;2022-12-18T05:08:40;-13.70;99.90
16964;DHT22;8598;50.508;10.436;2022-12-18T05:11:08;-13.70;99.90
16964;DHT22;8598;50.508;10.436;2022-12-18T05:13:36;-13.60;99.90
16964;DHT22;8598;50.508;10.436;2022-12-18T05:16:03;-13.50;99.90
16964;DHT22;8598;50.508;10.436;2022-12-18T05:18:30;-13.60;99.90
16964;DHT22;8598;50.508;10.436;2022-12-18T05:20:57;-13.60;99.90
16964;DHT22;8598;50.508;10.436;2022-12-18T05:23:26;-13.50;99.90
16964;DHT22;8598;50.508;10.436;2022-12-18T05:25:54;-13.50;99.90
16964;DHT22;8598;50.508;10.436;2022-12-18T05:28:22;-13.40;99.90
16964;DHT22;8598;50.508;10.436;2022-12-18T05:30:49;-13.50;99.90
16964;DHT22;8598;50.508;10.436;2022-12-18T05:33:16;-13.60;99.90
16964;DHT22;8598;50.508;10.436;2022-12-18T05:35:43;-13.70;99.90
16964;DHT22;8598;50.508;10.436;2022-12-18T05:38:10;-13.70;99.90
16964;DHT22;8598;50.508;10.436;2022-12-18T05:40:41;-13.70;99.90
16964;DHT22;8598;50.508;10.436;2022-12-18T05:43:08;-13.90;99.90
16964;DHT22;8598;50.508;10.436;2022-12-18T05:45:36;-13.90;99.90
16964;DHT22;8598;50.508;10.436;2022-12-18T05:48:04;-13.80;99.90
16964;DHT22;8598;50.508;10.436;2022-12-18T05:50:33;-13.60;99.90
16964;DHT22;8598;50.508;10.436;2022-12-18T05:53:00;-13.60;99.90
16964;DHT22;8598;50.508;10.436;2022-12-18T05:55:26;-13.80;99.90
16964;DHT22;8598;50.508;10.436;2022-12-18T05:57:54;-13.80;99.90
16964;DHT22;8598;50.508;10.436;2022-12-18T06:00:21;-13.90;99.90
16964;DHT22;8598;50.508;10.436;2022-12-18T06:02:48;-13.80;99.90
16964;DHT22;8598;50.508;10.436;2022-12-18T06:05:15;-13.70;99.90
16964;DHT22;8598;50.508;10.436;2022-12-18T06:07:41;-13.70;99.90
16964;DHT22;8598;50.508;10.436;2022-12-18T06:10:08;-13.60;99.90
16964;DHT22;8598;50.508;10.436;2022-12-18T06:12:35;-13.60;99.90
16964;DHT22;8598;50.508;10.436;2022-12-18T06:15:03;-13.70;99.90
16964;DHT22;8598;50.508;10.436;2022-12-18T06:17:31;-13.70;99.90
16964;DHT22;8598;50.508;10.436;2022-12-18T06:19:58;-13.80;99.90
16964;DHT22;8598;50.508;10.436;2022-12-18T06:22:24;-13.90;99.90
16964;DHT22;8598;50.508;10.436;2022-12-18T06:24:51;-14.00;99.90
16964;DHT22;8598;50.508;10.436;2022-12-18T06:27:20;-13.90;99.90
16964;DHT22;8598;50.508;10.436;2022-12-18T06:29:47;-14.10;99.90
16964;DHT22;8598;50.508;10.436;2022-12-18T06:32:15;-13.70;99.90
16964;DHT22;8598;50.508;10.436;2022-12-18T06:34:42;-13.70;99.90
16964;DHT22;8598;50.508;10.436;2022-12-18T06:37:09;-13.70;99.90
16964;DHT22;8598;50.508;10.436;2022-12-18T06:39:35;-13.70;99.90
16964;DHT22;8598;50.508;10.436;2022-12-18T06:42:03;-13.80;99.90
16964;DHT22;8598;50.508;10.436;2022-12-18T06:44:30;-13.90;99.90
16964;DHT22;8598;50.508;10.436;2022-12-18T06:46:56;-13.90;99.90
16964;DHT22;8598;50.508;10.436;2022-12-18T06:49:24;-13.80;99.90
16964;DHT22;8598;50.508;10.436;2022-12-18T06:51:51;-13.80;99.90
16964;DHT22;8598;50.508;10.436;2022-12-18T06:54:18;-13.80;99.90
16964;DHT22;8598;50.508;10.436;2022-12-18T06:56:46;-13.80;99.90
16964;DHT22;8598;50.508;10.436;2022-12-18T06:59:13;-13.80;99.90
16964;DHT22;8598;50.508;10.436;2022-12-18T07:01:40;-13.80;99.90
16964;DHT22;8598;50.508;10.436;2022-12-18T07:04:07;-13.80;99.90
16964;DHT22;8598;50.508;10.436;2022-12-18T07:06:35;-13.80;99.90
16964;DHT22;8598;50.508;10.436;2022-12-18T07:09:02;-13.90;99.90
16964;DHT22;8598;50.508;10.436;2022-12-18T07:11:29;-13.90;99.90
16964;DHT22;8598;50.508;10.436;2022-12-18T07:13:55;-13.90;99.90
16964;DHT22;8598;50.508;10.436;2022-12-18T07:16:26;-13.80;99.90
16964;DHT22;8598;50.508;10.436;2022-12-18T07:18:55;-13.70;99.90
16964;DHT22;8598;50.508;10.436;2022-12-18T07:21:22;-13.70;99.90
16964;DHT22;8598;50.508;10.436;2022-12-18T07:23:50;-13.70;99.90
16964;DHT22;8598;50.508;10.436;2022-12-18T07:26:19;-13.70;99.90
16964;DHT22;8598;50.508;10.436;2022-12-18T07:28:46;-13.60;99.90
16964;DHT22;8598;50.508;10.436;2022-12-18T07:31:15;-13.70;99.90
16964;DHT22;8598;50.508;10.436;2022-12-18T07:33:45;-13.80;99.90
16964;DHT22;8598;50.508;10.436;2022-12-18T07:36:16;-13.70;99.90
16964;DHT22;8598;50.508;10.436;2022-12-18T07:38:43;-13.80;99.90
16964;DHT22;8598;50.508;10.436;2022-12-18T07:41:12;-13.70;99.90
16964;DHT22;8598;50.508;10.436;2022-12-18T07:43:40;-13.70;99.90
16964;DHT22;8598;50.508;10.436;2022-12-18T07:46:08;-13.70;99.90
16964;DHT22;8598;50.508;10.436;2022-12-18T07:48:35;-13.70;99.90
16964;DHT22;8598;50.508;10.436;2022-12-18T07:51:03;-13.70;99.90
16964;DHT22;8598;50.508;10.436;2022-12-18T07:53:31;-13.70;99.90
16964;DHT22;8598;50.508;10.436;2022-12-18T07:55:58;-13.60;99.90
16964;DHT22;8598;50.508;10.436;2022-12-18T07:58:27;-13.50;99.90
16964;DHT22;8598;50.508;10.436;2022-12-18T08:01:01;-13.60;99.90
16964;DHT22;8598;50.508;10.436;2022-12-18T08:03:28;-13.40;99.90
16964;DHT22;8598;50.508;10.436;2022-12-18T08:05:58;-13.30;99.90
16964;DHT22;8598;50.508;10.436;2022-12-18T08:08:25;-13.20;99.90
16964;DHT22;8598;50.508;10.436;2022-12-18T08:10:52;-13.20;99.90
16964;DHT22;8598;50.508;10.436;2022-12-18T08:13:19;-13.10;99.90
16964;DHT22;8598;50.508;10.436;2022-12-18T08:15:55;-13.00;99.90
16964;DHT22;8598;50.508;10.436;2022-12-18T08:18:22;-12.90;99.90
16964;DHT22;8598;50.508;10.436;2022-12-18T08:20:49;-12.70;99.90
16964;DHT22;8598;50.508;10.436;2022-12-18T08:23:16;-12.70;99.90
16964;DHT22;8598;50.508;10.436;2022-12-18T08:25:43;-12.60;99.90
16964;DHT22;8598;50.508;10.436;2022-12-18T08:28:10;-12.50;99.90
16964;DHT22;8598;50.508;10.436;2022-12-18T08:30:37;-12.40;99.90
16964;DHT22;8598;50.508;10.436;2022-12-18T08:33:05;-12.30;99.90
16964;DHT22;8598;50.508;10.436;2022-12-18T08:35:35;-12.20;99.90
16964;DHT22;8598;50.508;10.436;2022-12-18T08:38:02;-12.20;99.90
16964;DHT22;8598;50.508;10.436;2022-12-18T08:40:29;-12.10;99.90
16964;DHT22;8598;50.508;10.436;2022-12-18T08:42:56;-12.00;99.90
16964;DHT22;8598;50.508;10.436;2022-12-18T08:45:40;-11.80;99.90
16964;DHT22;8598;50.508;10.436;2022-12-18T08:48:08;-11.70;99.90
16964;DHT22;8598;50.508;10.436;2022-12-18T08:50:35;-11.60;99.90
16964;DHT22;8598;50.508;10.436;2022-12-18T08:53:02;-11.50;99.90
16964;DHT22;8598;50.508;10.436;2022-12-18T08:55:29;-11.40;99.90
16964;DHT22;8598;50.508;10.436;2022-12-18T08:57:55;-11.30;99.90
16964;DHT22;8598;50.508;10.436;2022-12-18T09:00:22;-11.20;99.90
16964;DHT22;8598;50.508;10.436;2022-12-18T09:02:49;-11.20;99.90
16964;DHT22;8598;50.508;10.436;2022-12-18T09:05:17;-11.10;99.90
16964;DHT22;8598;50.508;10.436;2022-12-18T09:07:44;-11.00;99.90
16964;DHT22;8598;50.508;10.436;2022-12-18T09:10:11;-10.90;99.90
16964;DHT22;8598;50.508;10.436;2022-12-18T09:12:37;-10.70;99.90
16964;DHT22;8598;50.508;10.436;2022-12-18T09:15:05;-10.60;99.90
16964;DHT22;8598;50.508;10.436;2022-12-18T09:17:32;-10.50;99.90
16964;DHT22;8598;50.508;10.436;2022-12-18T09:19:59;-10.40;99.90
16964;DHT22;8598;50.508;10.436;2022-12-18T09:22:27;-10.30;99.90
16964;DHT22;8598;50.508;10.436;2022-12-18T09:24:53;-10.10;99.90
16964;DHT22;8598;50.508;10.436;2022-12-18T09:27:20;-10.00;99.90
16964;DHT22;8598;50.508;10.436;2022-12-18T09:29:47;-9.90;99.90
16964;DHT22;8598;50.508;10.436;2022-12-18T09:32:14;-9.80;99.90
16964;DHT22;8598;50.508;10.436;2022-12-18T09:34:40;-9.70;99.90
16964;DHT22;8598;50.508;10.436;2022-12-18T09:37:07;-9.60;99.90
16964;DHT22;8598;50.508;10.436;2022-12-18T09:39:35;-9.40;99.90
16964;DHT22;8598;50.508;10.436;2022-12-18T09:42:02;-9.30;99.90
16964;DHT22;8598;50.508;10.436;2022-12-18T09:44:30;-9.10;99.90
16964;DHT22;8598;50.508;10.436;2022-12-18T09:47:09;-9.00;99.90
16964;DHT22;8598;50.508;10.436;2022-12-18T09:49:42;-8.90;99.90
16964;DHT22;8598;50.508;10.436;2022-12-18T09:52:14;-8.70;99.90
16964;DHT22;8598;50.508;10.436;2022-12-18T09:54:46;-8.70;99.90
16964;DHT22;8598;50.508;10.436;2022-12-18T09:57:17;-8.50;99.90
16964;DHT22;8598;50.508;10.436;2022-12-18T09:59:50;-8.30;99.90
16964;DHT22;8598;50.508;10.436;2022-12-18T10:02:20;-8.20;99.90
16964;DHT22;8598;50.508;10.436;2022-12-18T10:05:00;-8.00;99.90
16964;DHT22;8598;50.508;10.436;2022-12-18T10:07:37;-7.90;99.90
16964;DHT22;8598;50.508;10.436;2022-12-18T10:10:14;-7.70;99.90
16964;DHT22;8598;50.508;10.436;2022-12-18T10:12:54;-7.50;99.90
16964;DHT22;8598;50.508;10.436;2022-12-18T10:15:26;-7.20;99.90
16964;DHT22;8598;50.508;10.436;2022-12-18T10:18:00;-7.10;99.90
16964;DHT22;8598;50.508;10.436;2022-12-18T10:20:33;-6.90;99.90
16964;DHT22;8598;50.508;10.436;2022-12-18T10:23:07;-6.70;99.90
16964;DHT22;8598;50.508;10.436;2022-12-18T10:25:48;-5.10;99.90
16964;DHT22;8598;50.508;10.436;2022-12-18T10:28:18;-6.30;99.90
16964;DHT22;8598;50.508;10.436;2022-12-18T10:30:46;-6.00;99.90
16964;DHT22;8598;50.508;10.436;2022-12-18T10:33:13;-5.90;99.90
16964;DHT22;8598;50.508;10.436;2022-12-18T10:35:42;-5.70;99.90
16964;DHT22;8598;50.508;10.436;2022-12-18T10:38:21;-5.60;99.90
16964;DHT22;8598;50.508;10.436;2022-12-18T10:40:52;-5.40;99.90
16964;DHT22;8598;50.508;10.436;2022-12-18T10:43:21;-5.30;99.90
16964;DHT22;8598;50.508;10.436;2022-12-18T10:46:08;-5.30;99.90
16964;DHT22;8598;50.508;10.436;2022-12-18T10:48:47;-5.20;99.90
16964;DHT22;8598;50.508;10.436;2022-12-18T10:51:21;-5.00;99.90
16964;DHT22;8598;50.508;10.436;2022-12-18T10:53:52;-4.90;99.90
16964;DHT22;8598;50.508;10.436;2022-12-18T10:56:22;-4.70;99.90
16964;DHT22;8598;50.508;10.436;2022-12-18T10:58:57;-4.70;99.90
16964;DHT22;8598;50.508;10.436;2022-12-18T11:01:24;-4.80;99.90
16964;DHT22;8598;50.508;10.436;2022-12-18T11:03:59;-4.80;99.90
16964;DHT22;8598;50.508;10.436;2022-12-18T11:06:27;-4.80;99.90
16964;DHT22;8598;50.508;10.436;2022-12-18T11:08:58;-4.90;99.90
16964;DHT22;8598;50.508;10.436;2022-12-18T11:11:27;-4.90;99.90
16964;DHT22;8598;50.508;10.436;2022-12-18T11:14:02;-4.90;99.90
16964;DHT22;8598;50.508;10.436;2022-12-18T11:16:32;-5.00;99.90
16964;DHT22;8598;50.508;10.436;2022-12-18T11:19:13;-4.90;99.90
16964;DHT22;8598;50.508;10.436;2022-12-18T11:21:42;-4.90;99.90
16964;DHT22;8598;50.508;10.436;2022-12-18T11:24:19;-4.70;99.90
16964;DHT22;8598;50.508;10.436;2022-12-18T11:26:49;-4.90;99.90
16964;DHT22;8598;50.508;10.436;2022-12-18T11:29:17;-4.90;99.90
16964;DHT22;8598;50.508;10.436;2022-12-18T11:31:45;-4.90;99.90
16964;DHT22;8598;50.508;10.436;2022-12-18T11:34:13;-4.90;99.90
16964;DHT22;8598;50.508;10.436;2022-12-18T11:36:44;-4.90;99.90
16964;DHT22;8598;50.508;10.436;2022-12-18T11:39:17;-4.90;99.90
16964;DHT22;8598;50.508;10.436;2022-12-18T11:41:52;-4.90;99.90
16964;DHT22;8598;50.508;10.436;2022-12-18T11:44:46;-4.90;99.90
16964;DHT22;8598;50.508;10.436;2022-12-18T11:47:22;-4.80;99.90
16964;DHT22;8598;50.508;10.436;2022-12-18T11:49:52;-4.70;99.90
16964;DHT22;8598;50.508;10.436;2022-12-18T11:52:25;-4.60;99.90
16964;DHT22;8598;50.508;10.436;2022-12-18T11:54:53;-4.60;99.90
16964;DHT22;8598;50.508;10.436;2022-12-18T11:57:32;-4.60;99.90
16964;DHT22;8598;50.508;10.436;2022-12-18T12:00:07;-4.60;99.90
16964;DHT22;8598;50.508;10.436;2022-12-18T12:02:57;-4.60;99.90
16964;DHT22;8598;50.508;10.436;2022-12-18T12:05:35;-4.50;99.90
16964;DHT22;8598;50.508;10.436;2022-12-18T12:08:11;-4.50;99.90
16964;DHT22;8598;50.508;10.436;2022-12-18T12:10:50;-4.40;99.90
16964;DHT22;8598;50.508;10.436;2022-12-18T12:13:32;-4.40;99.90
16964;DHT22;8598;50.508;10.436;2022-12-18T12:16:10;-4.40;99.90
16964;DHT22;8598;50.508;10.436;2022-12-18T12:18:54;-4.40;99.90
16964;DHT22;8598;50.508;10.436;2022-12-18T12:21:28;-4.40;99.90
16964;DHT22;8598;50.508;10.436;2022-12-18T12:24:02;-4.30;99.90
16964;DHT22;8598;50.508;10.436;2022-12-18T12:26:35;-4.20;99.90
16964;DHT22;8598;50.508;10.436;2022-12-18T12:29:13;-4.20;99.90
16964;DHT22;8598;50.508;10.436;2022-12-18T12:31:55;-4.10;99.90
16964;DHT22;8598;50.508;10.436;2022-12-18T12:34:29;-4.00;99.90
16964;DHT22;8598;50.508;10.436;2022-12-18T12:37:11;-4.00;99.90
16964;DHT22;8598;50.508;10.436;2022-12-18T12:39:42;-4.00;99.90
16964;DHT22;8598;50.508;10.436;2022-12-18T12:42:17;-4.00;99.90
16964;DHT22;8598;50.508;10.436;2022-12-18T12:45:19;-4.00;99.90
16964;DHT22;8598;50.508;10.436;2022-12-18T12:47:49;-4.90;99.90
16964;DHT22;8598;50.508;10.436;2022-12-18T12:50:22;-4.00;99.90
16964;DHT22;8598;50.508;10.436;2022-12-18T12:52:51;-4.20;99.90
16964;DHT22;8598;50.508;10.436;2022-12-18T12:55:21;-3.00;99.90
16964;DHT22;8598;50.508;10.436;2022-12-18T12:57:54;-4.10;99.90
16964;DHT22;8598;50.508;10.436;2022-12-18T13:00:29;-4.00;99.90
16964;DHT22;8598;50.508;10.436;2022-12-18T13:03:03;-4.10;99.90
16964;DHT22;8598;50.508;10.436;2022-12-18T13:05:41;-4.10;99.90
16964;DHT22;8598;50.508;10.436;2022-12-18T13:08:12;-4.00;99.90
16964;DHT22;8598;50.508;10.436;2022-12-18T13:10:48;-4.10;99.90
16964;DHT22;8598;50.508;10.436;2022-12-18T13:13:15;-4.10;99.90
16964;DHT22;8598;50.508;10.436;2022-12-18T13:15:44;-4.10;99.90
16964;DHT22;8598;50.508;10.436;2022-12-18T13:18:17;-4.10;99.90
16964;DHT22;8598;50.508;10.436;2022-12-18T13:20:46;-4.00;99.90
16964;DHT22;8598;50.508;10.436;2022-12-18T13:23:31;-4.00;99.90
16964;DHT22;8598;50.508;10.436;2022-12-18T13:26:00;-4.00;99.90
16964;DHT22;8598;50.508;10.436;2022-12-18T13:28:52;-4.00;99.90
16964;DHT22;8598;50.508;10.436;2022-12-18T13:31:58;-4.00;99.90
16964;DHT22;8598;50.508;10.436;2022-12-18T13:34:26;-3.90;99.90
16964;DHT22;8598;50.508;10.436;2022-12-18T13:36:56;-3.90;99.90
16964;DHT22;8598;50.508;10.436;2022-12-18T13:39:31;-3.90;99.90
16964;DHT22;8598;50.508;10.436;2022-12-18T13:42:36;-3.90;99.90
16964;DHT22;8598;50.508;10.436;2022-12-18T13:45:43;-3.90;99.90
16964;DHT22;8598;50.508;10.436;2022-12-18T13:48:25;-3.90;99.90
16964;DHT22;8598;50.508;10.436;2022-12-18T13:50:58;-3.90;99.90
16964;DHT22;8598;50.508;10.436;2022-12-18T13:53:28;-3.90;99.90
16964;DHT22;8598;50.508;10.436;2022-12-18T13:55:56;-3.90;99.90
16964;DHT22;8598;50.508;10.436;2022-12-18T13:58:23;-3.90;99.90
16964;DHT22;8598;50.508;10.436;2022-12-18T14:00:51;-4.00;99.90
16964;DHT22;8598;50.508;10.436;2022-12-18T14:03:21;-4.00;99.90
16964;DHT22;8598;50.508;10.436;2022-12-18T14:05:55;-3.90;99.90
16964;DHT22;8598;50.508;10.436;2022-12-18T14:08:23;-4.00;99.90
16964;DHT22;8598;50.508;10.436;2022-12-18T14:10:51;-4.00;99.90
16964;DHT22;8598;50.508;10.436;2022-12-18T14:13:23;-4.10;99.90
16964;DHT22;8598;50.508;10.436;2022-12-18T14:15:53;-4.10;99.90
16964;DHT22;8598;50.508;10.436;2022-12-18T14:18:22;-4.20;99.90
16964;DHT22;8598;50.508;10.436;2022-12-18T14:20:51;-4.20;99.90
16964;DHT22;8598;50.508;10.436;2022-12-18T14:23:30;-4.30;99.90
16964;DHT22;8598;50.508;10.436;2022-12-18T14:25:57;-4.30;99.90
16964;DHT22;8598;50.508;10.436;2022-12-18T14:28:24;-4.40;99.90
16964;DHT22;8598;50.508;10.436;2022-12-18T14:30:53;-4.40;99.90
16964;DHT22;8598;50.508;10.436;2022-12-18T14:33:22;-4.40;99.90
16964;DHT22;8598;50.508;10.436;2022-12-18T14:35:55;-4.50;99.90
16964;DHT22;8598;50.508;10.436;2022-12-18T14:38:28;-4.50;99.90
16964;DHT22;8598;50.508;10.436;2022-12-18T14:40:58;-4.60;99.90
16964;DHT22;8598;50.508;10.436;2022-12-18T14:43:26;-4.60;99.90
16964;DHT22;8598;50.508;10.436;2022-12-18T14:45:55;-4.60;99.90
16964;DHT22;8598;50.508;10.436;2022-12-18T14:48:36;-4.60;99.90
16964;DHT22;8598;50.508;10.436;2022-12-18T14:51:06;-4.70;99.90
16964;DHT22;8598;50.508;10.436;2022-12-18T14:53:42;-4.70;99.90
16964;DHT22;8598;50.508;10.436;2022-12-18T14:56:17;-4.80;99.90
16964;DHT22;8598;50.508;10.436;2022-12-18T14:58:47;-4.80;99.90
16964;DHT22;8598;50.508;10.436;2022-12-18T15:01:21;-4.80;99.90
16964;DHT22;8598;50.508;10.436;2022-12-18T15:03:50;-4.80;99.90
16964;DHT22;8598;50.508;10.436;2022-12-18T15:06:23;-4.80;99.90
16964;DHT22;8598;50.508;10.436;2022-12-18T15:08:51;-4.80;99.90
16964;DHT22;8598;50.508;10.436;2022-12-18T15:11:42;-4.80;99.90
16964;DHT22;8598;50.508;10.436;2022-12-18T15:14:24;-4.80;99.90
16964;DHT22;8598;50.508;10.436;2022-12-18T15:16:59;-4.80;99.90
16964;DHT22;8598;50.508;10.436;2022-12-18T15:19:33;-4.90;99.90
16964;DHT22;8598;50.508;10.436;2022-12-18T15:22:01;-4.90;99.90
16964;DHT22;8598;50.508;10.436;2022-12-18T15:24:30;-4.90;99.90
16964;DHT22;8598;50.508;10.436;2022-12-18T15:26:57;-4.90;99.90
16964;DHT22;8598;50.508;10.436;2022-12-18T15:29:25;-4.90;99.90
16964;DHT22;8598;50.508;10.436;2022-12-18T15:32:01;-4.90;99.90
16964;DHT22;8598;50.508;10.436;2022-12-18T15:34:29;-4.90;99.90
16964;DHT22;8598;50.508;10.436;2022-12-18T15:36:56;-5.00;99.90
16964;DHT22;8598;50.508;10.436;2022-12-18T15:39:22;-5.00;99.90
16964;DHT22;8598;50.508;10.436;2022-12-18T15:41:49;-5.00;99.90
16964;DHT22;8598;50.508;10.436;2022-12-18T15:44:33;-5.00;99.90